sensor_id;sensor_type;location;lat;lon;timestamp;temperature;humidity
40636;DHT22;26642;55.766;37.828;2024-02-16T00:00:27;4.60;65.90
40636;DHT22;26642;55.766;37.828;2024-02-16T00:02:53;4.60;66.00
40636;DHT22;26642;55.766;37.828;2024-02-16T00:05:19;4.60;66.00
40636;DHT22;26642;55.766;37.828;2024-02-16T00:07:45;4.60;66.10
40636;DHT22;26642;55.766;37.828;2024-02-16T00:10:11;4.60;66.20
40636;DHT22;26642;55.766;37.828;2024-02-16T00:12:40;4.60;66.10
40636;DHT22;26642;55.766;37.828;2024-02-16T00:15:07;4.60;66.20
40636;DHT22;26642;55.766;37.828;2024-02-16T00:17:34;4.60;66.20
40636;DHT22;26642;55.766;37.828;2024-02-16T00:20:00;4.60;66.10
40636;DHT22;26642;55.766;37.828;2024-02-16T00:22:26;4.60;66.00
40636;DHT22;26642;55.766;37.828;2024-02-16T00:24:52;4.60;65.70
40636;DHT22;26642;55.766;37.828;2024-02-16T00:27:18;4.60;65.80
40636;DHT22;26642;55.766;37.828;2024-02-16T00:29:44;4.60;65.70
40636;DHT22;26642;55.766;37.828;2024-02-16T00:32:11;4.70;65.80
40636;DHT22;26642;55.766;37.828;2024-02-16T00:34:38;4.70;65.80
40636;DHT22;26642;55.766;37.828;2024-02-16T00:37:07;4.70;65.80
40636;DHT22;26642;55.766;37.828;2024-02-16T00:39:40;4.60;65.80
40636;DHT22;26642;55.766;37.828;2024-02-16T00:42:06;4.60;65.60
40636;DHT22;26642;55.766;37.828;2024-02-16T00:44:33;4.60;65.50
40636;DHT22;26642;55.766;37.828;2024-02-16T00:46:59;4.60;66.40
40636;DHT22;26642;55.766;37.828;2024-02-16T00:49:25;4.70;65.90
40636;DHT22;26642;55.766;37.828;2024-02-16T00:51:51;4.60;65.80
40636;DHT22;26642;55.766;37.828;2024-02-16T00:54:17;4.60;65.60
40636;DHT22;26642;55.766;37.828;2024-02-16T00:56:44;4.60;65.70
40636;DHT22;26642;55.766;37.828;2024-02-16T00:59:10;4.60;65.60
40636;DHT22;26642;55.766;37.828;2024-02-16T01:01:36;4.60;65.60
40636;DHT22;26642;55.766;37.828;2024-02-16T01:04:02;4.60;65.40
40636;DHT22;26642;55.766;37.828;2024-02-16T01:06:28;4.60;65.50
40636;DHT22;26642;55.766;37.828;2024-02-16T01:08:54;4.60;65.90
40636;DHT22;26642;55.766;37.828;2024-02-16T01:11:22;4.60;65.80
40636;DHT22;26642;55.766;37.828;2024-02-16T01:13:48;4.60;65.20
40636;DHT22;26642;55.766;37.828;2024-02-16T01:16:15;4.60;65.50
40636;DHT22;26642;55.766;37.828;2024-02-16T01:18:44;4.60;65.80
40636;DHT22;26642;55.766;37.828;2024-02-16T01:21:11;4.60;65.60
40636;DHT22;26642;55.766;37.828;2024-02-16T01:23:37;4.60;65.50
40636;DHT22;26642;55.766;37.828;2024-02-16T01:26:03;4.60;65.40
40636;DHT22;26642;55.766;37.828;2024-02-16T01:28:29;4.60;65.30
40636;DHT22;26642;55.766;37.828;2024-02-16T01:30:55;4.60;65.60
40636;DHT22;26642;55.766;37.828;2024-02-16T01:33:24;4.60;65.30
40636;DHT22;26642;55.766;37.828;2024-02-16T01:35:50;4.60;65.40
40636;DHT22;26642;55.766;37.828;2024-02-16T01:38:16;4.60;65.20
40636;DHT22;26642;55.766;37.828;2024-02-16T01:40:42;4.60;65.10
40636;DHT22;26642;55.766;37.828;2024-02-16T01:43:08;4.60;65.00
40636;DHT22;26642;55.766;37.828;2024-02-16T01:45:34;4.60;64.90
40636;DHT22;26642;55.766;37.828;2024-02-16T01:48:00;4.70;65.10
40636;DHT22;26642;55.766;37.828;2024-02-16T01:50:26;4.70;65.10
40636;DHT22;26642;55.766;37.828;2024-02-16T01:52:55;4.70;65.10
40636;DHT22;26642;55.766;37.828;2024-02-16T01:55:21;4.70;65.00
40636;DHT22;26642;55.766;37.828;2024-02-16T01:57:48;4.70;64.70
40636;DHT22;26642;55.766;37.828;2024-02-16T02:00:15;4.60;64.70
40636;DHT22;26642;55.766;37.828;2024-02-16T02:02:46;4.60;64.50
40636;DHT22;26642;55.766;37.828;2024-02-16T02:05:13;4.70;64.60
40636;DHT22;26642;55.766;37.828;2024-02-16T02:07:40;4.70;64.60
40636;DHT22;26642;55.766;37.828;2024-02-16T02:10:07;4.70;64.30
40636;DHT22;26642;55.766;37.828;2024-02-16T02:12:34;4.70;64.50
40636;DHT22;26642;55.766;37.828;2024-02-16T02:15:00;4.70;64.60
40636;DHT22;26642;55.766;37.828;2024-02-16T02:17:26;4.60;64.50
40636;DHT22;26642;55.766;37.828;2024-02-16T02:19:52;4.60;64.60
40636;DHT22;26642;55.766;37.828;2024-02-16T02:22:20;4.60;64.30
40636;DHT22;26642;55.766;37.828;2024-02-16T02:24:47;4.60;64.10
40636;DHT22;26642;55.766;37.828;2024-02-16T02:27:14;4.60;63.90
40636;DHT22;26642;55.766;37.828;2024-02-16T02:29:41;4.60;64.30
40636;DHT22;26642;55.766;37.828;2024-02-16T02:32:08;4.60;64.10
40636;DHT22;26642;55.766;37.828;2024-02-16T02:34:34;4.60;64.30
40636;DHT22;26642;55.766;37.828;2024-02-16T02:37:02;4.60;63.90
40636;DHT22;26642;55.766;37.828;2024-02-16T02:39:30;4.60;64.00
40636;DHT22;26642;55.766;37.828;2024-02-16T02:41:56;4.60;64.10
40636;DHT22;26642;55.766;37.828;2024-02-16T02:44:24;4.60;64.10
40636;DHT22;26642;55.766;37.828;2024-02-16T02:46:50;4.60;64.00
40636;DHT22;26642;55.766;37.828;2024-02-16T02:49:18;4.60;63.90
40636;DHT22;26642;55.766;37.828;2024-02-16T02:51:44;4.60;63.90
40636;DHT22;26642;55.766;37.828;2024-02-16T02:54:10;4.60;64.10
40636;DHT22;26642;55.766;37.828;2024-02-16T02:56:36;4.60;64.10
40636;DHT22;26642;55.766;37.828;2024-02-16T02:59:02;4.60;63.90
40636;DHT22;26642;55.766;37.828;2024-02-16T03:01:30;4.60;63.80
40636;DHT22;26642;55.766;37.828;2024-02-16T03:03:56;4.60;63.70
40636;DHT22;26642;55.766;37.828;2024-02-16T03:06:23;4.60;63.50
40636;DHT22;26642;55.766;37.828;2024-02-16T03:08:49;4.60;63.50
40636;DHT22;26642;55.766;37.828;2024-02-16T03:11:15;4.60;63.50
40636;DHT22;26642;55.766;37.828;2024-02-16T03:13:41;4.70;63.60
40636;DHT22;26642;55.766;37.828;2024-02-16T03:16:07;4.70;63.30
40636;DHT22;26642;55.766;37.828;2024-02-16T03:18:34;4.60;63.30
40636;DHT22;26642;55.766;37.828;2024-02-16T03:21:00;4.70;63.20
40636;DHT22;26642;55.766;37.828;2024-02-16T03:23:26;4.60;63.40
40636;DHT22;26642;55.766;37.828;2024-02-16T03:25:53;4.70;63.60
40636;DHT22;26642;55.766;37.828;2024-02-16T03:28:19;4.70;63.40
40636;DHT22;26642;55.766;37.828;2024-02-16T03:30:46;4.70;63.50
40636;DHT22;26642;55.766;37.828;2024-02-16T03:33:12;4.70;63.30
40636;DHT22;26642;55.766;37.828;2024-02-16T03:35:41;4.70;63.20
40636;DHT22;26642;55.766;37.828;2024-02-16T03:38:07;4.70;63.00
40636;DHT22;26642;55.766;37.828;2024-02-16T03:40:33;4.70;63.10
40636;DHT22;26642;55.766;37.828;2024-02-16T03:42:59;4.70;63.10
40636;DHT22;26642;55.766;37.828;2024-02-16T03:45:26;4.70;63.20
40636;DHT22;26642;55.766;37.828;2024-02-16T03:47:54;4.70;63.50
40636;DHT22;26642;55.766;37.828;2024-02-16T03:50:21;4.70;63.40
40636;DHT22;26642;55.766;37.828;2024-02-16T03:52:47;4.70;63.30
40636;DHT22;26642;55.766;37.828;2024-02-16T03:55:14;4.70;63.20
40636;DHT22;26642;55.766;37.828;2024-02-16T03:57:40;4.70;63.00
40636;DHT22;26642;55.766;37.828;2024-02-16T04:00:07;4.70;63.20
40636;DHT22;26642;55.766;37.828;2024-02-16T04:02:40;4.70;63.20
40636;DHT22;26642;55.766;37.828;2024-02-16T04:05:06;4.70;63.30
40636;DHT22;26642;55.766;37.828;2024-02-16T04:07:34;4.70;63.30
40636;DHT22;26642;55.766;37.828;2024-02-16T04:10:00;4.70;63.20
40636;DHT22;26642;55.766;37.828;2024-02-16T04:12:26;4.70;63.10
40636;DHT22;26642;55.766;37.828;2024-02-16T04:14:52;4.70;63.30
40636;DHT22;26642;55.766;37.828;2024-02-16T04:17:18;4.70;63.10
40636;DHT22;26642;55.766;37.828;2024-02-16T04:19:44;4.70;62.90
40636;DHT22;26642;55.766;37.828;2024-02-16T04:22:10;4.70;62.90
40636;DHT22;26642;55.766;37.828;2024-02-16T04:24:36;4.60;62.70
40636;DHT22;26642;55.766;37.828;2024-02-16T04:27:02;4.70;62.30
40636;DHT22;26642;55.766;37.828;2024-02-16T04:29:28;4.70;62.30
40636;DHT22;26642;55.766;37.828;2024-02-16T04:31:54;4.70;62.30
40636;DHT22;26642;55.766;37.828;2024-02-16T04:34:20;4.70;62.40
40636;DHT22;26642;55.766;37.828;2024-02-16T04:36:47;4.70;62.30
40636;DHT22;26642;55.766;37.828;2024-02-16T04:39:13;4.70;62.30
40636;DHT22;26642;55.766;37.828;2024-02-16T04:41:40;4.70;62.40
40636;DHT22;26642;55.766;37.828;2024-02-16T04:44:06;4.70;62.40
40636;DHT22;26642;55.766;37.828;2024-02-16T04:46:32;4.70;62.30
40636;DHT22;26642;55.766;37.828;2024-02-16T04:48:58;4.70;62.60
40636;DHT22;26642;55.766;37.828;2024-02-16T04:51:24;4.70;62.30
40636;DHT22;26642;55.766;37.828;2024-02-16T04:53:50;4.70;62.30
40636;DHT22;26642;55.766;37.828;2024-02-16T04:56:16;4.70;62.30
40636;DHT22;26642;55.766;37.828;2024-02-16T04:58:43;4.70;62.60
40636;DHT22;26642;55.766;37.828;2024-02-16T05:01:09;4.70;62.50
40636;DHT22;26642;55.766;37.828;2024-02-16T05:03:35;4.70;62.60
40636;DHT22;26642;55.766;37.828;2024-02-16T05:08:47;4.70;62.80
40636;DHT22;26642;55.766;37.828;2024-02-16T05:11:13;4.70;63.10
40636;DHT22;26642;55.766;37.828;2024-02-16T05:13:39;4.70;63.50
40636;DHT22;26642;55.766;37.828;2024-02-16T05:16:09;4.70;64.10
40636;DHT22;26642;55.766;37.828;2024-02-16T05:18:35;4.70;63.80
40636;DHT22;26642;55.766;37.828;2024-02-16T05:21:01;4.70;63.60
40636;DHT22;26642;55.766;37.828;2024-02-16T05:23:27;4.70;63.60
40636;DHT22;26642;55.766;37.828;2024-02-16T05:25:53;4.70;63.50
40636;DHT22;26642;55.766;37.828;2024-02-16T05:28:20;4.70;63.60
40636;DHT22;26642;55.766;37.828;2024-02-16T05:30:46;4.70;63.60
40636;DHT22;26642;55.766;37.828;2024-02-16T05:33:12;4.70;63.20
40636;DHT22;26642;55.766;37.828;2024-02-16T05:35:40;4.70;63.30
40636;DHT22;26642;55.766;37.828;2024-02-16T05:38:06;4.70;63.40
40636;DHT22;26642;55.766;37.828;2024-02-16T05:40:36;4.70;63.10
40636;DHT22;26642;55.766;37.828;2024-02-16T05:43:22;4.80;63.20
40636;DHT22;26642;55.766;37.828;2024-02-16T05:45:49;4.70;62.80
40636;DHT22;26642;55.766;37.828;2024-02-16T05:51:03;4.70;62.50
40636;DHT22;26642;55.766;37.828;2024-02-16T05:53:34;4.70;62.40
40636;DHT22;26642;55.766;37.828;2024-02-16T05:56:00;4.80;62.40
40636;DHT22;26642;55.766;37.828;2024-02-16T05:58:27;4.80;62.00
40636;DHT22;26642;55.766;37.828;2024-02-16T06:00:54;4.80;61.90
40636;DHT22;26642;55.766;37.828;2024-02-16T06:03:21;4.80;62.00
40636;DHT22;26642;55.766;37.828;2024-02-16T06:05:47;4.80;61.90
40636;DHT22;26642;55.766;37.828;2024-02-16T06:08:13;4.80;61.90
40636;DHT22;26642;55.766;37.828;2024-02-16T06:10:41;4.90;62.00
40636;DHT22;26642;55.766;37.828;2024-02-16T06:13:20;4.90;62.00
40636;DHT22;26642;55.766;37.828;2024-02-16T06:15:46;4.90;62.10
40636;DHT22;26642;55.766;37.828;2024-02-16T06:18:13;4.90;62.00
40636;DHT22;26642;55.766;37.828;2024-02-16T06:20:39;4.90;62.00
40636;DHT22;26642;55.766;37.828;2024-02-16T06:23:05;4.90;62.10
40636;DHT22;26642;55.766;37.828;2024-02-16T06:25:31;4.90;62.20
40636;DHT22;26642;55.766;37.828;2024-02-16T06:27:57;5.00;62.40
40636;DHT22;26642;55.766;37.828;2024-02-16T06:30:23;4.90;62.20
40636;DHT22;26642;55.766;37.828;2024-02-16T06:32:49;4.90;62.40
40636;DHT22;26642;55.766;37.828;2024-02-16T06:35:15;4.90;62.40
40636;DHT22;26642;55.766;37.828;2024-02-16T06:37:41;4.90;62.40
40636;DHT22;26642;55.766;37.828;2024-02-16T06:40:08;4.90;62.60
40636;DHT22;26642;55.766;37.828;2024-02-16T06:42:38;5.00;62.60
40636;DHT22;26642;55.766;37.828;2024-02-16T06:45:04;5.00;62.90
40636;DHT22;26642;55.766;37.828;2024-02-16T06:47:31;5.00;62.80
40636;DHT22;26642;55.766;37.828;2024-02-16T06:49:57;5.00;62.80
40636;DHT22;26642;55.766;37.828;2024-02-16T06:52:23;5.00;62.70
40636;DHT22;26642;55.766;37.828;2024-02-16T06:54:49;5.00;62.60
40636;DHT22;26642;55.766;37.828;2024-02-16T06:57:17;5.00;62.50
40636;DHT22;26642;55.766;37.828;2024-02-16T06:59:43;5.00;62.60
40636;DHT22;26642;55.766;37.828;2024-02-16T07:02:09;5.00;62.60
40636;DHT22;26642;55.766;37.828;2024-02-16T07:04:36;5.00;62.60
40636;DHT22;26642;55.766;37.828;2024-02-16T07:07:02;5.00;62.40
40636;DHT22;26642;55.766;37.828;2024-02-16T07:09:29;5.10;62.20
40636;DHT22;26642;55.766;37.828;2024-02-16T07:11:55;5.00;62.10
40636;DHT22;26642;55.766;37.828;2024-02-16T07:14:21;5.10;62.00
40636;DHT22;26642;55.766;37.828;2024-02-16T07:16:48;5.10;62.20
40636;DHT22;26642;55.766;37.828;2024-02-16T07:19:14;5.10;62.20
40636;DHT22;26642;55.766;37.828;2024-02-16T07:21:41;5.10;61.90
40636;DHT22;26642;55.766;37.828;2024-02-16T07:24:07;5.10;61.90
40636;DHT22;26642;55.766;37.828;2024-02-16T07:26:34;5.10;61.80
40636;DHT22;26642;55.766;37.828;2024-02-16T07:29:01;5.10;62.20
40636;DHT22;26642;55.766;37.828;2024-02-16T07:31:32;5.10;62.00
40636;DHT22;26642;55.766;37.828;2024-02-16T07:34:00;5.10;62.20
40636;DHT22;26642;55.766;37.828;2024-02-16T07:36:26;5.10;62.20
40636;DHT22;26642;55.766;37.828;2024-02-16T07:38:52;5.10;62.30
40636;DHT22;26642;55.766;37.828;2024-02-16T07:41:18;5.10;62.00
40636;DHT22;26642;55.766;37.828;2024-02-16T07:43:44;5.20;61.80
40636;DHT22;26642;55.766;37.828;2024-02-16T07:46:10;5.20;61.60
40636;DHT22;26642;55.766;37.828;2024-02-16T07:48:36;5.20;61.70
40636;DHT22;26642;55.766;37.828;2024-02-16T07:51:02;5.20;61.40
40636;DHT22;26642;55.766;37.828;2024-02-16T07:53:30;5.20;61.70
40636;DHT22;26642;55.766;37.828;2024-02-16T07:55:56;5.20;62.00
40636;DHT22;26642;55.766;37.828;2024-02-16T07:58:24;5.20;61.60
40636;DHT22;26642;55.766;37.828;2024-02-16T08:00:50;5.20;61.60
40636;DHT22;26642;55.766;37.828;2024-02-16T08:03:16;5.20;61.50
40636;DHT22;26642;55.766;37.828;2024-02-16T08:05:42;5.20;61.40
40636;DHT22;26642;55.766;37.828;2024-02-16T08:08:08;5.20;61.40
40636;DHT22;26642;55.766;37.828;2024-02-16T08:10:34;5.20;61.40
40636;DHT22;26642;55.766;37.828;2024-02-16T08:13:02;5.20;61.30
40636;DHT22;26642;55.766;37.828;2024-02-16T08:15:28;5.20;61.10
40636;DHT22;26642;55.766;37.828;2024-02-16T08:17:54;5.20;61.10
40636;DHT22;26642;55.766;37.828;2024-02-16T08:20:21;5.20;61.30
40636;DHT22;26642;55.766;37.828;2024-02-16T08:22:47;5.30;61.10
40636;DHT22;26642;55.766;37.828;2024-02-16T08:25:13;5.20;60.90
40636;DHT22;26642;55.766;37.828;2024-02-16T08:27:39;5.20;60.80
40636;DHT22;26642;55.766;37.828;2024-02-16T08:30:06;5.30;60.70
40636;DHT22;26642;55.766;37.828;2024-02-16T08:32:32;5.20;60.60
40636;DHT22;26642;55.766;37.828;2024-02-16T08:34:58;5.30;60.50
40636;DHT22;26642;55.766;37.828;2024-02-16T08:37:24;5.20;60.30
40636;DHT22;26642;55.766;37.828;2024-02-16T08:39:51;5.30;60.40
40636;DHT22;26642;55.766;37.828;2024-02-16T08:42:17;5.20;60.50
40636;DHT22;26642;55.766;37.828;2024-02-16T08:44:44;5.30;60.30
40636;DHT22;26642;55.766;37.828;2024-02-16T08:47:10;5.30;60.30
40636;DHT22;26642;55.766;37.828;2024-02-16T08:49:36;5.30;60.30
40636;DHT22;26642;55.766;37.828;2024-02-16T08:52:03;5.30;60.30
40636;DHT22;26642;55.766;37.828;2024-02-16T08:54:29;5.30;60.10
40636;DHT22;26642;55.766;37.828;2024-02-16T08:56:55;5.40;60.10
40636;DHT22;26642;55.766;37.828;2024-02-16T08:59:21;5.30;60.00
40636;DHT22;26642;55.766;37.828;2024-02-16T09:01:47;5.30;60.00
40636;DHT22;26642;55.766;37.828;2024-02-16T09:04:13;5.30;59.90
40636;DHT22;26642;55.766;37.828;2024-02-16T09:06:41;5.40;60.10
40636;DHT22;26642;55.766;37.828;2024-02-16T09:09:07;5.30;59.80
40636;DHT22;26642;55.766;37.828;2024-02-16T09:11:33;5.30;59.80
40636;DHT22;26642;55.766;37.828;2024-02-16T09:14:00;5.40;59.80
40636;DHT22;26642;55.766;37.828;2024-02-16T09:16:26;5.30;59.70
40636;DHT22;26642;55.766;37.828;2024-02-16T09:18:52;5.30;59.70
40636;DHT22;26642;55.766;37.828;2024-02-16T09:21:18;5.30;59.80
40636;DHT22;26642;55.766;37.828;2024-02-16T09:23:45;5.30;59.70
40636;DHT22;26642;55.766;37.828;2024-02-16T09:26:11;5.40;59.70
40636;DHT22;26642;55.766;37.828;2024-02-16T09:28:40;5.40;59.70
40636;DHT22;26642;55.766;37.828;2024-02-16T09:31:14;5.40;59.70
40636;DHT22;26642;55.766;37.828;2024-02-16T09:33:40;5.40;59.60
40636;DHT22;26642;55.766;37.828;2024-02-16T09:36:07;5.40;59.50
40636;DHT22;26642;55.766;37.828;2024-02-16T09:38:33;5.40;59.30
40636;DHT22;26642;55.766;37.828;2024-02-16T09:40:59;5.40;59.40
40636;DHT22;26642;55.766;37.828;2024-02-16T09:43:29;5.40;59.40
40636;DHT22;26642;55.766;37.828;2024-02-16T09:45:56;5.40;59.30
40636;DHT22;26642;55.766;37.828;2024-02-16T09:48:26;5.40;59.20
40636;DHT22;26642;55.766;37.828;2024-02-16T09:50:57;5.40;59.30
40636;DHT22;26642;55.766;37.828;2024-02-16T09:53:26;5.40;59.30
40636;DHT22;26642;55.766;37.828;2024-02-16T09:55:52;5.40;59.30
40636;DHT22;26642;55.766;37.828;2024-02-16T09:58:19;5.40;59.40
40636;DHT22;26642;55.766;37.828;2024-02-16T10:00:52;5.50;59.20
40636;DHT22;26642;55.766;37.828;2024-02-16T10:03:26;5.50;59.20
40636;DHT22;26642;55.766;37.828;2024-02-16T10:06:03;5.50;59.10
40636;DHT22;26642;55.766;37.828;2024-02-16T10:08:29;5.50;59.00
40636;DHT22;26642;55.766;37.828;2024-02-16T10:11:02;5.50;59.00
40636;DHT22;26642;55.766;37.828;2024-02-16T10:13:30;5.50;58.90
40636;DHT22;26642;55.766;37.828;2024-02-16T10:16:07;5.60;58.90
40636;DHT22;26642;55.766;37.828;2024-02-16T10:18:38;5.60;58.80
40636;DHT22;26642;55.766;37.828;2024-02-16T10:21:04;5.50;58.90
40636;DHT22;26642;55.766;37.828;2024-02-16T10:23:31;5.50;58.90
40636;DHT22;26642;55.766;37.828;2024-02-16T10:25:58;5.50;58.80
40636;DHT22;26642;55.766;37.828;2024-02-16T10:28:26;5.60;58.80
40636;DHT22;26642;55.766;37.828;2024-02-16T10:30:58;5.60;58.90
40636;DHT22;26642;55.766;37.828;2024-02-16T10:33:31;5.60;59.00
40636;DHT22;26642;55.766;37.828;2024-02-16T10:35:58;5.60;58.90
40636;DHT22;26642;55.766;37.828;2024-02-16T10:38:25;5.60;58.90
40636;DHT22;26642;55.766;37.828;2024-02-16T10:40:53;5.60;58.90
40636;DHT22;26642;55.766;37.828;2024-02-16T10:43:21;5.60;58.90
40636;DHT22;26642;55.766;37.828;2024-02-16T10:45:48;5.60;58.80
40636;DHT22;26642;55.766;37.828;2024-02-16T10:48:19;5.60;58.80
40636;DHT22;26642;55.766;37.828;2024-02-16T10:50:45;5.60;58.90
40636;DHT22;26642;55.766;37.828;2024-02-16T10:53:15;5.60;58.80
40636;DHT22;26642;55.766;37.828;2024-02-16T10:55:44;5.60;58.80
40636;DHT22;26642;55.766;37.828;2024-02-16T10:58:13;5.60;58.80
40636;DHT22;26642;55.766;37.828;2024-02-16T11:00:52;5.60;58.80
40636;DHT22;26642;55.766;37.828;2024-02-16T11:03:22;5.60;58.80
40636;DHT22;26642;55.766;37.828;2024-02-16T11:05:51;5.60;58.80
40636;DHT22;26642;55.766;37.828;2024-02-16T11:08:19;5.60;58.90
40636;DHT22;26642;55.766;37.828;2024-02-16T11:11:01;5.60;58.80
40636;DHT22;26642;55.766;37.828;2024-02-16T11:13:33;5.60;58.60
40636;DHT22;26642;55.766;37.828;2024-02-16T11:16:01;5.60;58.70
40636;DHT22;26642;55.766;37.828;2024-02-16T11:18:36;5.60;58.70
40636;DHT22;26642;55.766;37.828;2024-02-16T11:21:03;5.60;58.60
40636;DHT22;26642;55.766;37.828;2024-02-16T11:23:30;5.60;58.60
40636;DHT22;26642;55.766;37.828;2024-02-16T11:26:00;5.60;58.60
40636;DHT22;26642;55.766;37.828;2024-02-16T11:28:28;5.60;58.50
40636;DHT22;26642;55.766;37.828;2024-02-16T11:30:55;5.60;58.50
40636;DHT22;26642;55.766;37.828;2024-02-16T11:33:21;5.60;58.40
40636;DHT22;26642;55.766;37.828;2024-02-16T11:36:01;5.60;58.30
40636;DHT22;26642;55.766;37.828;2024-02-16T11:38:31;5.70;58.30
40636;DHT22;26642;55.766;37.828;2024-02-16T11:41:06;5.60;58.10
40636;DHT22;26642;55.766;37.828;2024-02-16T11:43:34;5.70;58.80
40636;DHT22;26642;55.766;37.828;2024-02-16T11:46:13;5.60;58.20
40636;DHT22;26642;55.766;37.828;2024-02-16T11:48:40;5.70;58.20
40636;DHT22;26642;55.766;37.828;2024-02-16T11:51:07;5.60;58.20
40636;DHT22;26642;55.766;37.828;2024-02-16T11:53:33;5.60;58.10
40636;DHT22;26642;55.766;37.828;2024-02-16T11:55:59;5.60;58.20
40636;DHT22;26642;55.766;37.828;2024-02-16T11:58:26;5.70;58.20
40636;DHT22;26642;55.766;37.828;2024-02-16T12:00:52;5.70;58.30
40636;DHT22;26642;55.766;37.828;2024-02-16T12:03:22;5.70;58.40
40636;DHT22;26642;55.766;37.828;2024-02-16T12:05:57;5.70;58.60
40636;DHT22;26642;55.766;37.828;2024-02-16T12:08:31;5.70;58.70
40636;DHT22;26642;55.766;37.828;2024-02-16T12:10:57;5.70;58.90
40636;DHT22;26642;55.766;37.828;2024-02-16T12:13:23;5.70;59.10
40636;DHT22;26642;55.766;37.828;2024-02-16T12:15:51;5.70;59.20
40636;DHT22;26642;55.766;37.828;2024-02-16T12:18:27;5.70;59.20
40636;DHT22;26642;55.766;37.828;2024-02-16T12:23:27;5.70;59.40
40636;DHT22;26642;55.766;37.828;2024-02-16T12:25:54;5.70;59.40
40636;DHT22;26642;55.766;37.828;2024-02-16T12:28:27;5.70;59.50
40636;DHT22;26642;55.766;37.828;2024-02-16T12:30:54;5.70;59.60
40636;DHT22;26642;55.766;37.828;2024-02-16T12:33:22;5.70;59.70
40636;DHT22;26642;55.766;37.828;2024-02-16T12:35:48;5.70;59.60
40636;DHT22;26642;55.766;37.828;2024-02-16T12:38:14;5.70;59.70
40636;DHT22;26642;55.766;37.828;2024-02-16T12:40:43;5.70;59.70
40636;DHT22;26642;55.766;37.828;2024-02-16T12:43:09;5.70;59.60
40636;DHT22;26642;55.766;37.828;2024-02-16T12:45:37;5.70;59.60
40636;DHT22;26642;55.766;37.828;2024-02-16T12:48:03;5.70;59.60
40636;DHT22;26642;55.766;37.828;2024-02-16T12:50:31;5.70;59.60
40636;DHT22;26642;55.766;37.828;2024-02-16T12:52:57;5.70;59.60
40636;DHT22;26642;55.766;37.828;2024-02-16T12:55:24;5.70;59.60
40636;DHT22;26642;55.766;37.828;2024-02-16T12:57:50;5.70;59.50
40636;DHT22;26642;55.766;37.828;2024-02-16T13:00:17;5.60;59.40
40636;DHT22;26642;55.766;37.828;2024-02-16T13:02:44;5.70;59.40
40636;DHT22;26642;55.766;37.828;2024-02-16T13:05:10;5.60;59.20
40636;DHT22;26642;55.766;37.828;2024-02-16T13:07:37;5.60;59.20
40636;DHT22;26642;55.766;37.828;2024-02-16T13:10:08;5.70;59.30
40636;DHT22;26642;55.766;37.828;2024-02-16T13:12:34;5.70;59.30
40636;DHT22;26642;55.766;37.828;2024-02-16T13:15:00;5.60;59.20
40636;DHT22;26642;55.766;37.828;2024-02-16T13:17:28;5.70;59.30
40636;DHT22;26642;55.766;37.828;2024-02-16T13:19:54;5.60;59.30
40636;DHT22;26642;55.766;37.828;2024-02-16T13:22:22;5.60;59.10
40636;DHT22;26642;55.766;37.828;2024-02-16T13:24:50;5.60;59.10
40636;DHT22;26642;55.766;37.828;2024-02-16T13:27:16;5.60;59.10
40636;DHT22;26642;55.766;37.828;2024-02-16T13:29:42;5.60;59.10
40636;DHT22;26642;55.766;37.828;2024-02-16T13:32:08;5.60;59.00
40636;DHT22;26642;55.766;37.828;2024-02-16T13:34:34;5.50;59.00
40636;DHT22;26642;55.766;37.828;2024-02-16T13:37:00;5.60;59.10
40636;DHT22;26642;55.766;37.828;2024-02-16T13:39:26;5.50;58.90
40636;DHT22;26642;55.766;37.828;2024-02-16T13:41:53;5.50;59.00
40636;DHT22;26642;55.766;37.828;2024-02-16T13:44:20;5.50;59.00
40636;DHT22;26642;55.766;37.828;2024-02-16T13:46:46;5.50;59.10
40636;DHT22;26642;55.766;37.828;2024-02-16T13:49:15;5.50;59.20
40636;DHT22;26642;55.766;37.828;2024-02-16T13:51:42;5.60;62.40
40636;DHT22;26642;55.766;37.828;2024-02-16T13:54:08;5.70;63.50
40636;DHT22;26642;55.766;37.828;2024-02-16T13:56:34;5.90;64.80
40636;DHT22;26642;55.766;37.828;2024-02-16T13:59:02;6.00;65.00
40636;DHT22;26642;55.766;37.828;2024-02-16T14:01:29;5.90;63.10
40636;DHT22;26642;55.766;37.828;2024-02-16T14:03:55;5.90;61.60
40636;DHT22;26642;55.766;37.828;2024-02-16T14:06:21;5.90;60.50
40636;DHT22;26642;55.766;37.828;2024-02-16T14:08:48;5.80;60.00
40636;DHT22;26642;55.766;37.828;2024-02-16T14:11:14;5.80;59.50
40636;DHT22;26642;55.766;37.828;2024-02-16T14:13:40;5.80;59.00
40636;DHT22;26642;55.766;37.828;2024-02-16T14:16:06;5.70;58.70
40636;DHT22;26642;55.766;37.828;2024-02-16T14:18:33;5.70;58.50
40636;DHT22;26642;55.766;37.828;2024-02-16T14:20:59;5.60;58.70
40636;DHT22;26642;55.766;37.828;2024-02-16T14:23:25;5.60;58.30
40636;DHT22;26642;55.766;37.828;2024-02-16T14:25:51;5.60;58.40
40636;DHT22;26642;55.766;37.828;2024-02-16T14:28:17;5.50;58.60
40636;DHT22;26642;55.766;37.828;2024-02-16T14:30:43;5.50;58.50
40636;DHT22;26642;55.766;37.828;2024-02-16T14:33:09;5.40;58.20
40636;DHT22;26642;55.766;37.828;2024-02-16T14:35:36;5.40;58.40
40636;DHT22;26642;55.766;37.828;2024-02-16T14:38:03;5.40;58.10
40636;DHT22;26642;55.766;37.828;2024-02-16T14:40:31;5.40;58.00
40636;DHT22;26642;55.766;37.828;2024-02-16T14:42:57;5.40;57.80
40636;DHT22;26642;55.766;37.828;2024-02-16T14:45:23;5.30;57.90
40636;DHT22;26642;55.766;37.828;2024-02-16T14:47:50;5.30;58.20
40636;DHT22;26642;55.766;37.828;2024-02-16T14:50:16;5.30;58.10
40636;DHT22;26642;55.766;37.828;2024-02-16T14:52:43;5.20;58.10
40636;DHT22;26642;55.766;37.828;2024-02-16T14:55:10;5.20;57.80
40636;DHT22;26642;55.766;37.828;2024-02-16T14:57:37;5.20;57.70
40636;DHT22;26642;55.766;37.828;2024-02-16T15:00:03;5.20;57.80
40636;DHT22;26642;55.766;37.828;2024-02-16T15:02:30;5.10;57.70
40636;DHT22;26642;55.766;37.828;2024-02-16T15:04:56;5.10;58.00
40636;DHT22;26642;55.766;37.828;2024-02-16T15:07:22;5.10;57.90
40636;DHT22;26642;55.766;37.828;2024-02-16T15:09:48;5.10;57.80
40636;DHT22;26642;55.766;37.828;2024-02-16T15:12:14;5.00;57.70
40636;DHT22;26642;55.766;37.828;2024-02-16T15:14:45;5.00;57.90
40636;DHT22;26642;55.766;37.828;2024-02-16T15:17:12;5.00;57.70
40636;DHT22;26642;55.766;37.828;2024-02-16T15:19:38;5.00;57.60
40636;DHT22;26642;55.766;37.828;2024-02-16T15:22:04;5.00;57.60
40636;DHT22;26642;55.766;37.828;2024-02-16T15:24:30;5.00;57.40
40636;DHT22;26642;55.766;37.828;2024-02-16T15:26:56;5.00;57.20
40636;DHT22;26642;55.766;37.828;2024-02-16T15:29:22;5.00;57.40
40636;DHT22;26642;55.766;37.828;2024-02-16T15:31:48;5.00;57.30
40636;DHT22;26642;55.766;37.828;2024-02-16T15:34:14;5.00;57.20
40636;DHT22;26642;55.766;37.828;2024-02-16T15:36:41;5.00;57.20